Time;durP1;ratioP1;P1;durP2;ratioP2;P2;SDS_P1;SDS_P2;PMS_P1;PMS_P2;Temp;Humidity;BMP_temperature;BMP_pressure;BME280_temperature;BME280_humidity;BME280_pressure;Samples;Min_cycle;Max_cycle;Signal;HPM_P1;HPM_P2
2022/07/28 00:01:29;;;;;;;5.47;4.20;;;;;;;20.77;79.23;99789.72;5050253;28;20057;-83
2022/07/28 00:03:54;;;;;;;5.55;4.32;;;;;;;20.72;78.93;99790.47;5051103;28;20048;-83
2022/07/28 00:06:20;;;;;;;5.93;4.30;;;;;;;20.68;79.77;99804.06;5050528;28;20128;-83
2022/07/28 00:08:46;;;;;;;5.45;4.63;;;;;;;20.54;80.31;99791.78;5034451;28;20053;-83
2022/07/28 00:11:12;;;;;;;5.07;4.50;;;;;;;20.58;80.33;99797.16;5050235;28;20041;-83
2022/07/28 00:13:37;;;;;;;4.70;4.20;;;;;;;20.52;81.09;99796.38;5050431;28;20056;-83
2022/07/28 00:16:03;;;;;;;4.85;4.35;;;;;;;20.49;81.18;99789.72;5043167;28;20045;-83
2022/07/28 00:18:29;;;;;;;5.43;4.30;;;;;;;20.38;81.83;99790.44;5049221;28;20410;-84
2022/07/28 00:20:55;;;;;;;7.65;4.75;;;;;;;20.43;81.93;99792.50;5033012;28;20048;-83
2022/07/28 00:23:23;;;;;;;6.95;4.90;;;;;;;20.39;82.82;99792.00;5032310;28;20056;-83
2022/07/28 00:25:49;;;;;;;6.03;4.78;;;;;;;20.33;82.84;99791.25;5051860;28;20088;-83
2022/07/28 00:28:14;;;;;;;6.30;4.85;;;;;;;20.32;83.64;99772.78;5050709;28;20840;-84
2022/07/28 00:30:40;;;;;;;6.10;4.82;;;;;;;20.25;84.85;99781.72;5050689;28;20080;-83
2022/07/28 00:33:05;;;;;;;6.55;5.18;;;;;;;20.24;85.69;99785.81;5049595;28;20444;-83
2022/07/28 00:35:31;;;;;;;5.05;4.50;;;;;;;20.22;85.79;99788.34;5051370;28;20045;-83
2022/07/28 00:37:57;;;;;;;6.72;4.65;;;;;;;20.19;86.15;99780.94;5051319;28;20409;-83
2022/07/28 00:41:09;;;;;;;7.25;5.30;;;;;;;20.19;86.97;99792.19;5031972;28;20056;-83
2022/07/28 00:43:09;;;;;;;5.30;4.80;;;;;;;20.24;87.27;99808.34;5050134;28;20036;-83
2022/07/28 00:45:34;;;;;;;6.85;5.45;;;;;;;20.17;88.59;99794.00;5051321;28;20047;-83
2022/07/28 00:48:00;;;;;;;5.72;5.10;;;;;;;20.07;89.34;99799.06;5049377;28;20044;-83
2022/07/28 00:50:25;;;;;;;6.13;5.07;;;;;;;20.10;90.06;99814.94;5050955;28;20041;-82
2022/07/28 00:52:51;;;;;;;6.75;5.38;;;;;;;20.10;89.98;99820.56;5051249;28;20045;-83
2022/07/28 00:55:17;;;;;;;6.97;5.43;;;;;;;20.02;91.74;99817.50;5031649;28;20045;-83
2022/07/28 00:57:43;;;;;;;6.80;5.60;;;;;;;19.95;92.88;99822.84;5031415;28;20071;-83
2022/07/28 01:00:09;;;;;;;5.90;5.25;;;;;;;20.01;91.85;99818.00;5049870;28;20120;-83
2022/07/28 01:05:43;;;;;;;7.32;5.43;;;;;;;20.06;91.20;99814.44;5011817;28;20100;-86
2022/07/28 01:08:20;;;;;;;8.37;5.63;;;;;;;20.08;92.26;99819.56;5020898;28;20045;-89
2022/07/28 01:10:56;;;;;;;6.05;5.45;;;;;;;20.07;92.53;99815.97;5009648;28;20046;-86
2022/07/28 01:13:44;;;;;;;7.72;6.80;;;;;;;19.98;95.59;99819.00;5009417;28;20076;-88
2022/07/28 01:16:10;;;;;;;7.63;6.03;;;;;;;19.99;95.94;99821.31;5002846;28;20045;-87
2022/07/28 01:18:42;;;;;;;7.40;6.70;;;;;;;20.00;97.78;99822.09;4996112;28;20042;-86
2022/07/28 01:21:13;;;;;;;7.20;6.50;;;;;;;19.96;97.92;99808.28;4995626;28;20413;-86
2022/07/28 01:24:11;;;;;;;7.60;6.90;;;;;;;19.91;98.74;99811.06;5003934;28;20042;-86
2022/07/28 01:26:45;;;;;;;8.30;6.72;;;;;;;19.94;99.32;99810.03;4992946;28;20121;-86
2022/07/28 01:29:31;;;;;;;8.20;7.03;;;;;;;19.95;99.54;99820.03;5013053;28;20053;-87
2022/07/28 01:32:11;;;;;;;8.02;7.10;;;;;;;19.92;100.00;99812.59;5017018;28;20068;-87
2022/07/28 01:35:02;;;;;;;7.65;6.53;;;;;;;19.91;99.77;99814.66;4997463;28;20045;-86
2022/07/28 01:37:29;;;;;;;9.07;7.65;;;;;;;19.85;100.00;99827.16;5011849;28;20049;-89
2022/07/28 01:39:58;;;;;;;8.40;7.60;;;;;;;19.88;100.00;99826.16;4996147;28;20044;-86
2022/07/28 01:42:29;;;;;;;8.98;8.10;;;;;;;19.80;100.00;99814.63;5004713;28;20040;-87
2022/07/28 01:44:56;;;;;;;11.43;8.50;;;;;;;19.75;100.00;99818.16;4996318;28;20050;-88
2022/07/28 01:47:22;;;;;;;9.98;8.90;;;;;;;19.67;100.00;99816.34;5012850;28;20119;-87
2022/07/28 01:49:49;;;;;;;10.35;9.25;;;;;;;19.64;100.00;99812.50;4998070;28;20065;-87
2022/07/28 01:52:16;;;;;;;10.25;9.18;;;;;;;19.67;100.00;99811.47;4999799;28;20051;-87
2022/07/28 01:54:44;;;;;;;11.40;10.23;;;;;;;19.62;100.00;99815.03;5028981;28;20048;-87
2022/07/28 01:57:13;;;;;;;12.50;11.20;;;;;;;19.50;100.00;99819.06;4991167;28;20097;-87
2022/07/28 01:59:39;;;;;;;11.27;10.05;;;;;;;19.47;100.00;99811.63;4988311;28;20037;-87
2022/07/28 02:02:06;;;;;;;13.48;10.65;;;;;;;19.47;100.00;99806.78;5015859;28;20038;-87
2022/07/28 02:04:34;;;;;;;11.30;10.15;;;;;;;19.43;100.00;99814.69;5039998;28;20128;-87
2022/07/28 02:07:01;;;;;;;11.25;10.25;;;;;;;19.39;100.00;99796.47;5028905;28;20048;-88
2022/07/28 02:09:27;;;;;;;11.40;10.30;;;;;;;19.39;100.00;99808.50;5004067;28;20095;-86
2022/07/28 02:11:53;;;;;;;11.90;10.70;;;;;;;19.38;100.00;99818.22;5039735;28;20025;-87
2022/07/28 02:14:21;;;;;;;12.23;11.00;;;;;;;19.32;100.00;99814.59;5023086;28;20052;-87
2022/07/28 02:16:57;;;;;;;11.90;10.70;;;;;;;19.35;100.00;99812.81;5045794;28;20105;-86
2022/07/28 02:19:23;;;;;;;13.18;11.63;;;;;;;19.27;100.00;99811.75;5022340;28;20040;-86
2022/07/28 02:21:50;;;;;;;12.15;10.95;;;;;;;19.18;100.00;99815.53;5027496;28;20666;-86
2022/07/28 02:24:18;;;;;;;12.45;11.23;;;;;;;19.10;100.00;99815.22;5017913;28;20053;-86
2022/07/28 02:26:56;;;;;;;12.18;10.98;;;;;;;19.05;100.00;99818.00;5025575;28;20052;-86
2022/07/28 02:29:25;;;;;;;12.70;11.25;;;;;;;18.97;100.00;99814.09;5044120;28;20123;-87
2022/07/28 02:31:56;;;;;;;13.77;11.43;;;;;;;18.98;100.00;99826.88;5039298;28;20044;-87
2022/07/28 02:34:22;;;;;;;12.02;10.82;;;;;;;18.91;100.00;99825.31;5039751;28;20048;-86
2022/07/28 02:37:00;;;;;;;13.15;11.73;;;;;;;18.84;100.00;99817.34;5033702;28;20041;-87
2022/07/28 02:39:35;;;;;;;13.23;11.63;;;;;;;18.93;100.00;99836.03;5043761;28;20040;-88
2022/07/28 02:42:05;;;;;;;12.40;11.10;;;;;;;18.95;100.00;99834.28;5041213;28;20045;-88
2022/07/28 02:44:40;;;;;;;11.40;10.30;;;;;;;18.95;100.00;99827.91;5031951;28;20032;-88
2022/07/28 02:47:09;;;;;;;12.63;11.02;;;;;;;18.99;100.00;99842.50;5021227;28;20165;-88
2022/07/28 02:49:35;;;;;;;12.68;10.55;;;;;;;19.01;100.00;99837.13;5028836;28;20041;-87
2022/07/28 02:52:03;;;;;;;11.63;10.43;;;;;;;18.95;100.00;99839.91;5047347;28;20082;-87
2022/07/28 02:54:29;;;;;;;11.55;10.43;;;;;;;18.92;100.00;99832.50;5048898;28;20033;-88
2022/07/28 02:56:56;;;;;;;11.82;10.63;;;;;;;18.86;100.00;99837.28;5032437;28;20048;-88
2022/07/28 02:59:22;;;;;;;12.02;10.43;;;;;;;18.89;100.00;99833.47;5045105;28;20037;-88
2022/07/28 03:01:48;;;;;;;11.38;10.23;;;;;;;18.95;100.00;99841.94;5024151;28;20099;-88
2022/07/28 03:04:14;;;;;;;11.85;10.30;;;;;;;18.85;100.00;99830.13;5020519;28;20565;-88
2022/07/28 03:06:41;;;;;;;10.88;9.85;;;;;;;18.91;100.00;99849.84;5018674;28;20119;-88
2022/07/28 03:09:10;;;;;;;11.43;10.25;;;;;;;18.94;100.00;99846.03;5005336;28;20045;-88
2022/07/28 03:11:50;;;;;;;10.82;9.20;;;;;;;18.89;100.00;99838.31;5048794;28;20492;-89
2022/07/28 03:14:16;;;;;;;10.75;9.63;;;;;;;18.82;100.00;99836.75;5015801;28;20038;-88
2022/07/28 03:16:41;;;;;;;11.07;9.40;;;;;;;18.79;100.00;99842.59;5032902;28;20539;-88
2022/07/28 03:19:07;;;;;;;10.90;9.63;;;;;;;18.75;100.00;99848.44;5037626;28;20041;-88
2022/07/28 03:21:32;;;;;;;10.32;9.25;;;;;;;18.77;100.00;99853.53;5032126;28;20095;-88
2022/07/28 03:23:58;;;;;;;9.63;8.73;;;;;;;18.81;100.00;99862.50;5015891;28;20484;-88
2022/07/28 03:26:34;;;;;;;9.30;8.50;;;;;;;18.85;100.00;99869.44;5049410;28;20038;-88
2022/07/28 03:29:00;;;;;;;10.90;8.93;;;;;;;18.82;100.00;99862.03;5049647;28;20439;-88
2022/07/28 03:31:26;;;;;;;12.40;9.63;;;;;;;18.84;100.00;99876.38;5032350;28;20041;-88
2022/07/28 03:33:52;;;;;;;10.07;9.00;;;;;;;18.80;100.00;99875.03;5019986;28;20091;-88
2022/07/28 03:36:21;;;;;;;11.18;9.07;;;;;;;18.74;100.00;99866.56;5032281;28;20132;-88
2022/07/28 03:38:58;;;;;;;10.43;9.35;;;;;;;18.70;100.00;99879.28;5030907;28;20037;-88
2022/07/28 03:41:25;;;;;;;11.15;8.93;;;;;;;18.71;100.00;99883.63;5052275;28;20091;-88
2022/07/28 03:43:51;;;;;;;9.93;8.68;;;;;;;18.74;100.00;99891.84;5035485;28;20071;-88
2022/07/28 03:46:17;;;;;;;10.38;9.38;;;;;;;18.78;100.00;99894.44;5051825;28;20064;-88
2022/07/28 03:48:43;;;;;;;10.70;9.55;;;;;;;18.78;100.00;99891.63;5068323;28;20358;-87
2022/07/28 03:51:09;;;;;;;14.18;9.13;;;;;;;18.82;100.00;99878.13;5034972;28;20135;-87
2022/07/28 03:53:34;;;;;;;11.60;9.00;;;;;;;18.84;100.00;99892.44;5032137;28;20137;-88
2022/07/28 03:56:02;;;;;;;11.35;9.93;;;;;;;18.81;100.00;99899.03;5008318;28;20512;-87
2022/07/28 03:58:27;;;;;;;10.43;9.15;;;;;;;18.89;100.00;99911.38;5049399;28;20536;-87
2022/07/28 04:00:53;;;;;;;11.25;8.95;;;;;;;18.91;100.00;99904.00;5029237;28;20124;-87
2022/07/28 04:03:19;;;;;;;12.18;9.40;;;;;;;18.79;100.00;99912.84;5014841;28;20511;-86
2022/07/28 04:05:45;;;;;;;11.65;8.93;;;;;;;18.71;100.00;99906.88;5028387;28;20068;-87
2022/07/28 04:08:10;;;;;;;10.15;9.05;;;;;;;18.71;100.00;99903.31;5049780;28;20484;-87
2022/07/28 04:10:36;;;;;;;10.73;9.30;;;;;;;18.74;100.00;99899.50;5051142;28;20076;-87
2022/07/28 04:13:02;;;;;;;10.07;9.07;;;;;;;18.77;100.00;99898.50;5049710;28;20091;-86
2022/07/28 04:15:29;;;;;;;9.50;8.38;;;;;;;18.68;100.00;99901.50;5031821;28;20053;-87
2022/07/28 04:17:55;;;;;;;10.00;8.82;;;;;;;18.75;100.00;99901.03;5046872;28;20047;-87
2022/07/28 04:20:22;;;;;;;9.68;8.68;;;;;;;18.85;100.00;99910.84;5031053;28;20492;-87
2022/07/28 04:22:48;;;;;;;10.98;9.13;;;;;;;18.88;100.00;99910.63;5047434;28;20049;-87
2022/07/28 04:25:16;;;;;;;8.88;7.97;;;;;;;18.86;100.00;99907.53;5031564;28;20037;-87
2022/07/28 04:27:42;;;;;;;9.70;8.00;;;;;;;18.98;100.00;99914.03;5041826;28;20269;-87
2022/07/28 04:30:12;;;;;;;9.93;9.02;;;;;;;18.87;100.00;99905.50;5034161;28;20049;-87
2022/07/28 04:32:38;;;;;;;9.30;8.40;;;;;;;18.90;100.00;99924.94;5027857;28;20033;-86
2022/07/28 04:35:05;;;;;;;9.43;8.23;;;;;;;18.86;100.00;99918.00;5035636;28;20041;-86
2022/07/28 04:37:31;;;;;;;11.45;8.55;;;;;;;18.85;100.00;99902.41;5049973;28;20067;-85
2022/07/28 04:39:56;;;;;;;10.00;8.73;;;;;;;18.80;100.00;99908.75;5047644;28;20065;-85
2022/07/28 04:42:22;;;;;;;9.90;8.80;;;;;;;18.93;100.00;99911.94;5032480;28;20037;-85
2022/07/28 04:44:48;;;;;;;10.00;9.10;;;;;;;18.84;100.00;99903.69;5018121;28;20399;-85
2022/07/28 04:47:13;;;;;;;9.65;8.65;;;;;;;18.97;100.00;99913.25;5007860;28;20405;-85
2022/07/28 04:49:39;;;;;;;9.50;8.60;;;;;;;18.93;100.00;99907.09;5031278;28;20459;-85
2022/07/28 04:52:07;;;;;;;9.57;8.68;;;;;;;19.03;100.00;99911.28;5030162;28;20051;-85
2022/07/28 04:54:33;;;;;;;10.18;8.82;;;;;;;18.98;100.00;99900.75;5014574;28;20037;-85
2022/07/28 04:56:58;;;;;;;9.73;8.73;;;;;;;19.06;100.00;99895.44;5036490;28;20049;-83
2022/07/28 04:59:24;;;;;;;10.43;9.25;;;;;;;18.99;100.00;99909.94;5049962;28;20047;-84
2022/07/28 05:01:50;;;;;;;9.48;8.48;;;;;;;19.01;100.00;99899.75;5032281;28;20067;-84
2022/07/28 05:04:15;;;;;;;9.65;8.75;;;;;;;19.13;100.00;99902.66;5062709;28;20589;-84
2022/07/28 05:06:41;;;;;;;8.88;7.97;;;;;;;19.16;100.00;99908.06;5047786;28;20042;-84
2022/07/28 05:09:06;;;;;;;10.52;8.35;;;;;;;19.35;100.00;99919.69;5045628;28;20061;-84
2022/07/28 05:11:32;;;;;;;9.82;8.68;;;;;;;19.43;100.00;99912.38;5025395;28;20048;-85
2022/07/28 05:13:57;;;;;;;11.00;8.48;;;;;;;19.43;100.00;99907.53;5031738;28;20589;-84
2022/07/28 05:16:23;;;;;;;9.80;8.60;;;;;;;19.46;100.00;99914.94;5045276;28;20041;-85
2022/07/28 05:18:48;;;;;;;10.38;8.23;;;;;;;19.35;100.00;99909.22;5049461;28;20123;-85
2022/07/28 05:21:14;;;;;;;12.07;9.00;;;;;;;19.38;100.00;99919.47;5032395;28;20404;-85
2022/07/28 05:23:39;;;;;;;9.98;9.00;;;;;;;19.37;100.00;99917.16;5050184;28;20028;-85
2022/07/28 05:26:06;;;;;;;9.75;8.77;;;;;;;19.38;100.00;99922.28;5045409;28;20048;-85
2022/07/28 05:28:32;;;;;;;12.57;9.00;;;;;;;19.32;100.00;99921.47;5031689;28;20554;-85
2022/07/28 05:30:57;;;;;;;9.60;8.65;;;;;;;19.36;100.00;99921.25;5044630;28;20749;-85
2022/07/28 05:33:23;;;;;;;11.07;8.93;;;;;;;19.44;100.00;99923.13;5036076;28;20401;-84
2022/07/28 05:35:56;;;;;;;10.10;8.95;;;;;;;19.46;100.00;99920.56;5036036;28;20132;-83
2022/07/28 05:38:22;;;;;;;11.82;9.13;;;;;;;19.66;100.00;99922.50;5026466;28;20512;-84
2022/07/28 05:40:48;;;;;;;8.98;8.07;;;;;;;19.92;100.00;99928.03;5027323;28;20108;-84
2022/07/28 05:43:14;;;;;;;10.00;8.55;;;;;;;19.97;98.48;99925.25;5047456;28;20557;-84
2022/07/28 05:45:40;;;;;;;10.68;8.55;;;;;;;19.86;99.66;99924.38;5048157;28;20045;-85
2022/07/28 05:48:06;;;;;;;11.15;8.18;;;;;;;20.15;98.50;99929.66;5045544;28;20052;-84
2022/07/28 05:50:31;;;;;;;9.52;8.63;;;;;;;20.38;96.57;99920.03;5044660;28;20068;-88
2022/07/28 05:52:57;;;;;;;10.10;8.35;;;;;;;20.48;95.54;99918.53;5042851;28;20056;-84
2022/07/28 05:55:22;;;;;;;9.38;8.20;;;;;;;20.41;95.52;99916.22;5048173;28;20045;-84
2022/07/28 05:57:48;;;;;;;10.00;8.52;;;;;;;20.39;95.77;99930.03;5041918;28;20065;-86
2022/07/28 06:00:19;;;;;;;9.80;8.98;;;;;;;20.31;95.85;99922.56;5039317;28;20126;-85
2022/07/28 06:02:47;;;;;;;9.32;8.43;;;;;;;20.33;95.86;99926.44;5029418;28;20050;-84
2022/07/28 06:05:17;;;;;;;9.68;8.68;;;;;;;20.32;95.69;99922.09;5045767;28;20045;-85
2022/07/28 06:07:43;;;;;;;9.18;8.20;;;;;;;20.50;95.02;99931.38;5030238;28;20060;-85
2022/07/28 06:10:09;;;;;;;9.23;8.32;;;;;;;20.58;94.96;99940.88;5020232;28;20041;-85
2022/07/28 06:12:46;;;;;;;9.45;7.93;;;;;;;20.81;93.71;99946.03;5022366;28;20519;-85
2022/07/28 06:15:17;;;;;;;8.88;7.95;;;;;;;21.10;92.25;99944.78;5038220;28;20060;-85
2022/07/28 06:17:43;;;;;;;9.60;8.60;;;;;;;20.87;92.09;99946.81;5037890;28;20048;-84
2022/07/28 06:20:11;;;;;;;9.20;8.30;;;;;;;21.01;91.37;99955.53;5019179;22;20189;-83
2022/07/28 06:22:48;;;;;;;8.95;8.07;;;;;;;21.02;90.87;99955.03;4998582;28;20041;-83
2022/07/28 06:25:19;;;;;;;9.45;8.27;;;;;;;21.02;90.71;99934.53;4998774;28;20511;-83
2022/07/28 06:27:46;;;;;;;8.68;7.60;;;;;;;20.95;91.54;99944.25;4997692;28;20500;-83
2022/07/28 06:30:12;;;;;;;8.98;8.07;;;;;;;20.99;91.49;99953.22;4981340;28;20035;-83
2022/07/28 06:32:38;;;;;;;8.23;7.43;;;;;;;21.11;91.11;99956.84;4986870;28;20046;-83
2022/07/28 06:35:04;;;;;;;8.25;7.43;;;;;;;21.31;89.71;99943.25;4988190;28;20054;-83
2022/07/28 06:37:29;;;;;;;8.38;7.57;;;;;;;21.54;88.72;99937.63;4990354;28;20046;-94
2022/07/28 06:39:55;;;;;;;10.05;7.15;;;;;;;21.85;87.59;99954.25;4997497;28;20084;-96
2022/07/28 06:42:21;;;;;;;8.20;7.40;;;;;;;21.73;87.61;99944.25;4990547;28;20049;-95
2022/07/28 06:44:46;;;;;;;8.00;7.18;;;;;;;21.69;86.97;99949.41;4995099;28;20128;-95
2022/07/28 06:47:12;;;;;;;8.38;7.57;;;;;;;21.58;87.20;99944.56;4991191;28;20046;-96
2022/07/28 06:49:37;;;;;;;7.97;7.22;;;;;;;21.68;86.72;99947.84;4992679;28;20478;-95
2022/07/28 06:52:03;;;;;;;11.05;7.60;;;;;;;21.61;87.14;99949.16;4995608;28;20038;-96
2022/07/28 06:54:28;;;;;;;8.20;7.32;;;;;;;21.72;86.67;99949.13;4996995;28;20047;-95
2022/07/28 06:56:54;;;;;;;8.27;7.30;;;;;;;21.85;85.76;99951.41;4996923;28;20055;-84
2022/07/28 06:59:19;;;;;;;10.38;6.65;;;;;;;22.14;85.71;99950.84;4989694;28;20042;-83
2022/07/28 07:01:45;;;;;;;7.50;6.65;;;;;;;22.25;83.97;99955.69;4979502;28;20043;-83
2022/07/28 07:04:10;;;;;;;7.18;6.43;;;;;;;22.53;83.19;99969.69;4974014;28;20477;-83
2022/07/28 07:06:36;;;;;;;10.38;7.18;;;;;;;22.73;81.36;99966.53;4974966;28;20050;-84
2022/07/28 07:09:02;;;;;;;8.45;7.18;;;;;;;22.70;81.51;99971.19;4974967;28;20062;-83
2022/07/28 07:11:27;;;;;;;7.70;6.93;;;;;;;22.79;80.57;99978.59;4988371;28;20036;-83
2022/07/28 07:13:53;;;;;;;7.57;6.75;;;;;;;22.95;79.73;99963.56;5009555;28;20100;-83
2022/07/28 07:16:19;;;;;;;8.20;7.40;;;;;;;22.95;78.29;99977.72;4996999;28;20512;-96
2022/07/28 07:18:44;;;;;;;7.60;6.90;;;;;;;23.00;78.73;99976.16;5002543;28;20113;-96
2022/07/28 07:21:10;;;;;;;7.30;6.40;;;;;;;22.93;79.75;99968.97;5004263;28;20143;-95
2022/07/28 07:23:35;;;;;;;7.43;6.70;;;;;;;23.42;78.34;99983.28;5011549;28;20041;-96
2022/07/28 07:26:02;;;;;;;9.07;6.90;;;;;;;23.56;77.22;99987.84;5013368;28;20057;-95
2022/07/28 07:28:28;;;;;;;7.57;6.47;;;;;;;23.94;75.41;99975.34;5031294;28;20097;-96
2022/07/28 07:30:53;;;;;;;6.95;6.28;;;;;;;24.02;74.30;99993.28;5030187;28;20041;-96
2022/07/28 07:33:19;;;;;;;10.55;6.60;;;;;;;24.13;73.89;99981.09;5016839;28;20038;-83
2022/07/28 07:35:44;;;;;;;7.63;6.50;;;;;;;24.08;73.13;99990.41;4998509;28;20041;-96
2022/07/28 07:38:10;;;;;;;8.48;6.97;;;;;;;23.84;73.33;99985.50;5018013;28;20044;-94
2022/07/28 07:40:36;;;;;;;7.75;6.65;;;;;;;23.94;72.33;99986.69;5002373;28;20042;-96
2022/07/28 07:43:03;;;;;;;8.13;6.60;;;;;;;24.11;73.05;99986.50;5018507;28;20034;-96
2022/07/28 07:45:28;;;;;;;6.63;5.95;;;;;;;24.44;71.93;99985.38;5003574;28;20438;-96
2022/07/28 07:47:54;;;;;;;8.38;6.88;;;;;;;24.62;71.72;99987.47;5000090;28;20061;-96
2022/07/28 07:50:19;;;;;;;7.65;6.60;;;;;;;24.77;71.49;99982.09;5020469;28;20046;-96
2022/07/28 07:52:45;;;;;;;7.47;5.90;;;;;;;25.13;70.95;99984.72;5021663;28;20037;-95
2022/07/28 07:55:10;;;;;;;7.15;6.15;;;;;;;25.15;69.37;99988.56;5024140;28;20049;-83
2022/07/28 07:57:36;;;;;;;7.05;6.15;;;;;;;25.18;68.19;99981.03;5021828;28;20042;-84
2022/07/28 08:00:02;;;;;;;7.28;6.47;;;;;;;25.19;68.32;99977.66;5021486;28;20069;-84
2022/07/28 08:02:29;;;;;;;9.82;6.20;;;;;;;25.10;69.08;99965.94;5004693;28;20053;-84
2022/07/28 08:04:55;;;;;;;6.90;6.20;;;;;;;25.07;69.15;99977.03;5004737;28;20033;-84
2022/07/28 08:07:21;;;;;;;7.13;6.40;;;;;;;24.93;68.85;99964.09;5022444;28;20042;-83
2022/07/28 08:09:46;;;;;;;6.57;5.88;;;;;;;24.87;70.12;99974.75;4986769;28;20419;-83
2022/07/28 08:12:12;;;;;;;7.47;5.80;;;;;;;24.96;70.26;99976.44;5003840;28;20045;-84
2022/07/28 08:14:37;;;;;;;7.10;6.40;;;;;;;24.77;70.34;99970.75;5044480;28;20030;-96
2022/07/28 08:17:05;;;;;;;6.63;6.03;;;;;;;25.23;69.60;99971.66;5024105;28;20054;-96
2022/07/28 08:19:30;;;;;;;7.63;6.22;;;;;;;25.52;68.15;99970.63;5025305;28;20409;-96
2022/07/28 08:21:56;;;;;;;7.53;5.60;;;;;;;25.78;67.70;99965.06;5026117;28;20080;-96
2022/07/28 08:24:24;;;;;;;8.52;5.80;;;;;;;25.97;66.09;99964.94;5038442;28;20025;-96
2022/07/28 08:26:51;;;;;;;7.60;6.05;;;;;;;25.85;65.94;99958.72;5031596;28;20038;-96
2022/07/28 08:29:17;;;;;;;6.45;5.80;;;;;;;26.14;65.88;99950.41;5030905;28;20046;-96
2022/07/28 08:31:42;;;;;;;9.43;5.43;;;;;;;26.76;64.66;99959.22;5031328;28;20041;-84
2022/07/28 08:34:08;;;;;;;9.18;5.80;;;;;;;27.19;62.59;99961.59;5021924;28;20100;-84
2022/07/28 08:36:34;;;;;;;7.15;5.95;;;;;;;27.34;62.45;99956.03;5020816;28;20518;-83
2022/07/28 08:38:59;;;;;;;6.28;5.55;;;;;;;27.58;59.18;99964.25;5021097;28;20088;-83
2022/07/28 08:41:29;;;;;;;5.95;5.35;;;;;;;27.32;58.13;99964.38;5022058;28;20121;-82
2022/07/28 08:43:55;;;;;;;6.13;5.40;;;;;;;27.83;56.71;99962.56;5001096;28;20057;-82
2022/07/28 08:46:21;;;;;;;8.13;5.45;;;;;;;27.69;57.80;99952.59;5002715;28;20030;-82
2022/07/28 08:48:48;;;;;;;8.35;5.82;;;;;;;27.94;57.34;99958.66;5019860;28;20049;-82
2022/07/28 08:51:14;;;;;;;8.13;5.63;;;;;;;28.23;56.70;99959.41;5005936;28;20073;-95
2022/07/28 08:53:40;;;;;;;6.43;5.30;;;;;;;28.24;54.53;99958.09;5016106;28;20040;-94
2022/07/28 08:56:08;;;;;;;6.07;5.47;;;;;;;28.16;53.48;99948.72;5000719;28;20077;-96
2022/07/28 08:58:36;;;;;;;7.20;5.00;;;;;;;28.30;53.01;99950.16;5015710;28;20057;-96
2022/07/28 09:01:02;;;;;;;8.25;5.70;;;;;;;28.46;53.40;99954.59;5047985;28;20100;-96
2022/07/28 09:03:28;;;;;;;5.65;4.63;;;;;;;28.16;52.02;99948.72;5029860;28;20041;-96
2022/07/28 09:05:57;;;;;;;6.00;4.88;;;;;;;28.58;51.76;99947.22;5024917;28;20076;-96
2022/07/28 09:08:23;;;;;;;6.20;4.88;;;;;;;28.62;51.46;99956.19;5036652;28;20037;-96
2022/07/28 09:10:49;;;;;;;5.10;4.60;;;;;;;28.48;51.59;99951.16;5028608;28;20048;-83
2022/07/28 09:13:16;;;;;;;6.22;4.70;;;;;;;28.64;51.11;99956.38;5020072;28;20041;-83
2022/07/28 09:15:43;;;;;;;5.55;4.53;;;;;;;28.66;50.91;99948.03;5021163;28;20045;-83
2022/07/28 09:18:08;;;;;;;5.25;4.75;;;;;;;28.72;50.15;99951.47;5028698;28;20128;-84
2022/07/28 09:20:38;;;;;;;6.07;5.00;;;;;;;28.77;49.61;99931.88;5031393;28;20502;-83
2022/07/28 09:23:05;;;;;;;7.20;4.90;;;;;;;28.94;51.25;99949.25;5014160;28;20087;-83
2022/07/28 09:25:31;;;;;;;5.90;4.90;;;;;;;28.73;50.29;99947.31;4995959;28;20113;-84
2022/07/28 09:28:17;;;;;;;5.70;5.00;;;;;;;28.77;49.17;99940.47;4992148;28;20127;-83
2022/07/28 09:30:45;;;;;;;5.03;4.50;;;;;;;28.79;49.90;99934.97;5002077;28;20047;-96
2022/07/28 09:33:31;;;;;;;6.90;4.78;;;;;;;28.19;49.99;99930.47;4995232;28;20078;-96
2022/07/28 09:35:57;;;;;;;6.22;4.90;;;;;;;28.39;49.88;99918.22;5003621;28;20127;-96
2022/07/28 09:38:26;;;;;;;5.78;4.32;;;;;;;28.60;48.87;99924.59;5019582;28;20045;-96
2022/07/28 09:40:57;;;;;;;6.60;4.90;;;;;;;28.94;48.59;99921.47;5001608;28;20044;-96
2022/07/28 09:43:36;;;;;;;6.32;4.43;;;;;;;29.46;48.11;99920.03;5024791;28;20071;-96
2022/07/28 09:46:18;;;;;;;6.65;4.40;;;;;;;29.79;45.37;99920.19;5019457;28;20050;-96
2022/07/28 09:48:49;;;;;;;6.85;4.45;;;;;;;29.95;44.70;99918.84;5018987;28;20061;-82
2022/07/28 09:51:18;;;;;;;6.22;4.20;;;;;;;29.89;45.50;99926.84;5018997;28;20584;-83
2022/07/28 09:53:44;;;;;;;7.75;4.70;;;;;;;30.18;42.13;99910.97;5016285;28;20042;-83
2022/07/28 09:56:10;;;;;;;5.13;4.63;;;;;;;30.32;44.49;99909.41;5001945;28;20112;-83
2022/07/28 09:58:36;;;;;;;6.53;3.97;;;;;;;30.36;44.04;99918.34;5010128;28;20049;-83
2022/07/28 10:01:03;;;;;;;4.82;4.43;;;;;;;30.38;43.33;99915.66;5030953;28;20053;-83
2022/07/28 10:03:29;;;;;;;4.45;4.05;;;;;;;30.56;42.47;99910.84;5031015;28;20037;-83
2022/07/28 10:05:57;;;;;;;8.18;4.28;;;;;;;30.09;43.68;99914.41;5013413;28;20048;-83
2022/07/28 10:08:43;;;;;;;6.40;4.35;;;;;;;29.95;43.60;99904.56;5032408;28;20038;-95
2022/07/28 10:11:10;;;;;;;7.50;5.22;;;;;;;30.33;42.85;99899.47;5012404;28;20133;-95
2022/07/28 10:13:50;;;;;;;4.50;3.85;;;;;;;30.87;41.35;99895.00;4995856;28;20060;-96
2022/07/28 10:16:17;;;;;;;6.30;4.22;;;;;;;31.35;39.47;99907.09;5013980;28;20058;-96
2022/07/28 10:18:43;;;;;;;5.15;3.80;;;;;;;31.42;38.89;99909.13;4996133;28;20085;-95
2022/07/28 10:21:12;;;;;;;4.18;3.72;;;;;;;31.30;39.15;99908.09;4995658;28;20042;-96
2022/07/28 10:23:38;;;;;;;6.07;3.97;;;;;;;31.43;38.96;99907.78;5014610;28;20490;-95
2022/07/28 10:26:10;;;;;;;6.25;3.83;;;;;;;31.06;38.44;99905.97;4997019;28;20038;-83
2022/07/28 10:28:38;;;;;;;7.50;3.95;;;;;;;30.77;40.30;99901.97;4993425;28;20053;-83
2022/07/28 10:31:07;;;;;;;6.45;3.90;;;;;;;30.86;40.39;99898.44;5010378;28;20096;-83
2022/07/28 10:33:34;;;;;;;4.90;3.50;;;;;;;31.24;38.26;99903.94;4993806;28;20050;-83
2022/07/28 10:35:59;;;;;;;8.18;3.80;;;;;;;31.04;38.42;99905.81;5011016;28;20117;-83
2022/07/28 10:38:29;;;;;;;4.75;4.00;;;;;;;31.18;37.48;99901.31;4985823;28;20579;-83
2022/07/28 10:40:55;;;;;;;7.57;3.97;;;;;;;31.45;37.19;99896.53;4988732;28;20403;-83
2022/07/28 10:43:22;;;;;;;5.43;4.20;;;;;;;31.25;37.98;99900.50;5000214;28;20137;-83
2022/07/28 10:45:47;;;;;;;4.13;3.72;;;;;;;31.38;37.52;99891.59;4985215;28;20046;-95
2022/07/28 10:48:14;;;;;;;4.45;3.38;;;;;;;31.53;37.17;99890.72;5010879;28;20049;-95
2022/07/28 10:50:39;;;;;;;4.40;3.72;;;;;;;31.72;36.90;99884.44;4983251;28;20041;-96
2022/07/28 10:53:06;;;;;;;4.90;3.78;;;;;;;31.66;36.09;99892.53;4994357;28;20235;-95
2022/07/28 10:55:51;;;;;;;5.38;3.95;;;;;;;31.36;36.24;99887.81;5012619;28;20120;-95
2022/07/28 10:58:23;;;;;;;4.75;3.47;;;;;;;31.10;36.19;99888.41;5012910;28;20050;-94
2022/07/28 11:00:50;;;;;;;5.05;3.85;;;;;;;31.25;37.15;99880.44;4996413;28;20454;-96
2022/07/28 11:03:39;;;;;;;6.82;3.80;;;;;;;31.80;36.31;99873.63;5014142;28;20041;-96
2022/07/28 11:06:38;;;;;;;4.28;3.70;;;;;;;32.11;34.17;99874.09;4996610;28;20045;-83
2022/07/28 11:09:32;;;;;;;4.40;3.72;;;;;;;32.37;34.22;99874.16;5008051;28;20679;-82
2022/07/28 11:11:58;;;;;;;4.88;3.47;;;;;;;32.24;33.96;99870.88;4990838;28;20501;-83
2022/07/28 11:14:24;;;;;;;4.95;3.67;;;;;;;32.11;35.45;99863.38;4970885;28;20361;-83
2022/07/28 11:16:59;;;;;;;5.05;3.65;;;;;;;31.95;36.25;99856.25;4984150;28;20104;-83
2022/07/28 11:19:25;;;;;;;4.50;3.85;;;;;;;31.75;35.38;99866.03;5007487;28;20395;-83
2022/07/28 11:24:56;;;;;;;4.07;3.67;;;;;;;31.22;36.92;99866.53;5002371;28;20049;-95
2022/07/28 11:27:40;;;;;;;4.75;3.85;;;;;;;30.67;37.23;99858.09;5022697;28;20041;-96
2022/07/28 11:30:06;;;;;;;4.85;3.67;;;;;;;31.30;36.70;99867.97;5024521;28;20132;-96
2022/07/28 11:32:50;;;;;;;6.63;3.95;;;;;;;31.52;36.28;99854.03;5027473;28;20049;-96
2022/07/28 11:35:17;;;;;;;5.40;3.53;;;;;;;31.95;36.11;99850.53;5028895;28;20108;-96
2022/07/28 11:38:02;;;;;;;5.22;3.60;;;;;;;32.43;34.92;99845.19;5010516;28;20048;-96